Time,TemperatureF,DewpointF,PressureIn,WindDirection,WindDirectionDegrees,WindSpeedMPH,WindSpeedGustMPH,Humidity,HourlyPrecipIn,Conditions,Clouds,dailyrainin,SoftwareType,DateUTC
2013-01-03 00:00:00,74.6,69.4,30.01,SSE,158,2.0,7.0,84,0.00,,,0.00,VWS V13.00,2013-01-03 04:00:00,
2013-01-03 00:30:00,75.5,69.6,30.01,SSE,158,2.0,8.0,82,0.00,,,0.00,VWS V13.00,2013-01-03 04:30:00,
2013-01-03 01:00:00,77.5,70.8,30.00,SE,135,3.0,9.0,80,0.00,,,0.00,VWS V13.00,2013-01-03 05:00:00,
2013-01-03 01:30:00,77.8,70.8,30.00,ESE,112,3.0,9.0,79,0.00,,,0.00,VWS V13.00,2013-01-03 05:30:00,
2013-01-03 02:00:00,78.0,71.3,29.99,ESE,112,3.0,9.0,80,0.00,,,0.00,VWS V13.00,2013-01-03 06:00:00,
2013-01-03 02:30:00,77.7,71.0,29.98,ESE,112,3.0,10.0,80,0.00,,,0.00,VWS V13.00,2013-01-03 06:30:00,
2013-01-03 03:00:00,76.2,69.9,29.98,SE,135,1.0,7.0,81,0.00,,,0.00,VWS V13.00,2013-01-03 07:00:00,
2013-01-03 03:30:00,74.1,69.3,29.98,SE,135,1.0,4.0,85,0.00,,,0.00,VWS V13.00,2013-01-03 07:30:00,
2013-01-03 04:00:00,75.2,70.4,29.98,SSE,158,1.0,8.0,85,0.00,,,0.00,VWS V13.00,2013-01-03 08:00:00,
2013-01-03 04:30:00,77.9,71.2,29.98,ESE,112,3.0,11.0,80,0.00,,,0.00,VWS V13.00,2013-01-03 08:30:00,
2013-01-03 05:00:00,78.2,71.2,29.98,ESE,112,4.0,11.0,79,0.00,,,0.00,VWS V13.00,2013-01-03 09:00:00,
2013-01-03 05:30:00,78.5,71.4,29.99,ESE,112,5.0,12.0,79,0.00,,,0.00,VWS V13.00,2013-01-03 09:30:00,
2013-01-03 06:00:00,78.4,71.0,29.99,ESE,112,4.0,10.0,78,0.00,,,0.00,VWS V13.00,2013-01-03 10:00:00,
2013-01-03 06:30:00,78.2,71.2,30.00,ESE,112,4.0,16.0,79,0.00,,,0.00,VWS V13.00,2013-01-03 10:30:00,
2013-01-03 07:00:00,78.4,71.0,30.01,ESE,112,4.0,13.0,78,0.00,,,0.00,VWS V13.00,2013-01-03 11:00:00,
2013-01-03 07:30:00,78.5,71.8,30.02,ESE,112,4.0,11.0,80,0.00,,,0.00,VWS V13.00,2013-01-03 11:30:00,
2013-01-03 08:00:00,78.4,71.0,30.03,ESE,112,4.0,10.0,78,0.00,,,0.00,VWS V13.00,2013-01-03 12:00:00,
2013-01-03 08:30:00,78.6,71.6,30.04,ESE,112,4.0,11.0,79,0.00,,,0.00,VWS V13.00,2013-01-03 12:30:00,
2013-01-03 09:00:00,78.5,71.8,30.05,ESE,112,5.0,13.0,80,0.00,,,0.00,VWS V13.00,2013-01-03 13:00:00,
2013-01-03 09:30:00,79.3,71.5,30.06,ESE,112,4.0,12.0,77,0.00,,,0.00,VWS V13.00,2013-01-03 13:30:00,
2013-01-03 10:00:00,79.2,71.8,30.06,ESE,112,4.0,11.0,78,0.00,,,0.00,VWS V13.00,2013-01-03 14:00:00,
2013-01-03 10:30:00,79.2,72.1,30.06,ESE,112,4.0,14.0,79,0.00,,,0.00,VWS V13.00,2013-01-03 14:30:00,
2013-01-03 11:04:00,76.0,72.5,30.07,SE,135,5.0,18.0,89,0.01,,,0.01,VWS V13.00,2013-01-03 15:04:00,
2013-01-03 11:09:00,75.4,72.3,30.06,SSE,161,2.0,9.0,90,0.00,,,0.02,VWS V13.00,2013-01-03 15:09:00,
2013-01-03 11:14:00,75.3,72.5,30.06,East,98,6.0,9.0,91,0.00,,,0.03,VWS V13.00,2013-01-03 15:14:00,
2013-01-03 11:19:00,75.2,72.4,30.06,SSE,167,2.0,9.0,91,0.00,,,0.03,VWS V13.00,2013-01-03 15:19:00,
2013-01-03 11:24:00,75.1,72.6,30.06,ESE,113,2.0,9.0,92,0.00,,,0.03,VWS V13.00,2013-01-03 15:24:00,
2013-01-03 11:29:00,75.1,72.6,30.06,SSE,165,5.0,9.0,92,0.00,,,0.03,VWS V13.00,2013-01-03 15:29:00,
2013-01-03 11:34:00,75.4,72.9,30.05,SSE,158,6.0,6.0,92,0.00,,,0.03,VWS V13.00,2013-01-03 15:34:00,
2013-01-03 11:39:00,75.7,73.2,30.05,ESE,116,2.0,7.0,92,0.00,,,0.03,VWS V13.00,2013-01-03 15:39:00,
2013-01-03 11:44:00,76.0,73.5,30.05,ESE,105,2.0,7.0,92,0.00,,,0.03,VWS V13.00,2013-01-03 15:44:00,
2013-01-03 11:49:00,76.3,73.8,30.05,East,84,7.0,9.0,92,0.00,,,0.03,VWS V13.00,2013-01-03 15:49:00,
2013-01-03 11:54:00,76.6,73.8,30.05,ESE,104,7.0,9.0,91,0.00,,,0.03,VWS V13.00,2013-01-03 15:54:00,
2013-01-03 11:59:00,76.8,73.7,30.05,ESE,109,4.0,9.0,90,0.00,,,0.03,VWS V13.00,2013-01-03 15:59:00,
2013-01-03 12:04:00,77.3,73.5,30.04,SE,142,3.0,8.0,88,0.00,,,0.03,VWS V13.00,2013-01-03 16:04:00,
2013-01-03 12:09:00,77.6,73.4,30.04,SE,128,5.0,12.0,87,0.00,,,0.03,VWS V13.00,2013-01-03 16:09:00,
2013-01-03 12:14:00,77.6,73.4,30.04,ENE,68,5.0,12.0,87,0.00,,,0.03,VWS V13.00,2013-01-03 16:14:00,
2013-01-03 12:19:00,77.6,73.8,30.04,SE,140,5.0,12.0,88,0.00,,,0.03,VWS V13.00,2013-01-03 16:19:00,
2013-01-03 12:24:00,77.5,73.7,30.04,ESE,103,2.0,12.0,88,0.00,,,0.03,VWS V13.00,2013-01-03 16:24:00,
2013-01-03 12:29:00,77.8,74.3,30.04,East,95,5.0,12.0,89,0.00,,,0.03,VWS V13.00,2013-01-03 16:29:00,
2013-01-03 12:34:00,78.0,74.2,30.03,East,88,5.0,8.0,88,0.00,,,0.03,VWS V13.00,2013-01-03 16:34:00,
2013-01-03 12:39:00,78.0,73.8,30.03,SE,126,6.0,9.0,87,0.00,,,0.03,VWS V13.00,2013-01-03 16:39:00,
2013-01-03 12:44:00,78.1,73.6,30.03,ESE,117,3.0,9.0,86,0.00,,,0.03,VWS V13.00,2013-01-03 16:44:00,
2013-01-03 12:49:00,78.2,73.7,30.03,ESE,103,5.0,9.0,86,0.00,,,0.03,VWS V13.00,2013-01-03 16:49:00,
2013-01-03 12:54:00,78.5,74.0,30.03,ESE,122,5.0,12.0,86,0.00,,,0.03,VWS V13.00,2013-01-03 16:54:00,
2013-01-03 12:59:00,78.5,73.6,30.02,ESE,109,4.0,12.0,85,0.00,,,0.03,VWS V13.00,2013-01-03 16:59:00,
2013-01-03 13:04:00,78.6,73.7,30.02,ESE,117,7.0,10.0,85,0.00,,,0.03,VWS V13.00,2013-01-03 17:04:00,
2013-01-03 13:09:00,78.8,73.9,30.02,East,95,2.0,10.0,85,0.00,,,0.03,VWS V13.00,2013-01-03 17:09:00,
2013-01-03 13:14:00,78.5,73.3,30.02,East,94,3.0,12.0,84,0.00,,,0.03,VWS V13.00,2013-01-03 17:14:00,
2013-01-03 13:19:00,78.2,73.0,30.02,East,100,6.0,12.0,84,0.00,,,0.03,VWS V13.00,2013-01-03 17:19:00,
2013-01-03 13:24:00,78.2,73.3,30.01,East,101,9.0,12.0,85,0.00,,,0.03,VWS V13.00,2013-01-03 17:24:00,
2013-01-03 13:29:00,79.0,74.1,30.01,SE,141,7.0,12.0,85,0.00,,,0.03,VWS V13.00,2013-01-03 17:29:00,
2013-01-03 13:34:00,79.3,73.7,30.01,ESE,118,7.0,10.0,83,0.00,,,0.03,VWS V13.00,2013-01-03 17:34:00,
2013-01-03 13:39:00,79.6,74.0,30.01,ESE,113,2.0,10.0,83,0.00,,,0.03,VWS V13.00,2013-01-03 17:39:00,
2013-01-03 13:44:00,80.2,74.2,30.01,ESE,112,4.0,10.0,82,0.00,,,0.03,VWS V13.00,2013-01-03 17:44:00,
2013-01-03 13:49:00,80.6,74.2,30.00,ESE,117,4.0,10.0,81,0.00,,,0.03,VWS V13.00,2013-01-03 17:49:00,
2013-01-03 13:54:00,80.7,74.0,30.00,East,90,5.0,10.0,80,0.00,,,0.03,VWS V13.00,2013-01-03 17:54:00,
2013-01-03 13:59:00,81.1,74.3,30.00,ESE,117,4.0,14.0,80,0.00,,,0.03,VWS V13.00,2013-01-03 17:59:00,
2013-01-03 14:04:00,81.0,74.2,30.00,East,91,9.0,12.0,80,0.00,,,0.03,VWS V13.00,2013-01-03 18:04:00,
2013-01-03 14:09:00,81.1,74.3,30.00,ESE,117,7.0,12.0,80,0.00,,,0.03,VWS V13.00,2013-01-03 18:09:00,
2013-01-03 14:14:00,81.1,74.0,30.00,ESE,105,5.0,15.0,79,0.00,,,0.03,VWS V13.00,2013-01-03 18:14:00,
2013-01-03 14:19:00,81.2,74.1,30.00,East,97,5.0,15.0,79,0.00,,,0.03,VWS V13.00,2013-01-03 18:19:00,
2013-01-03 14:24:00,81.3,74.2,30.00,ESE,111,5.0,15.0,79,0.00,,,0.03,VWS V13.00,2013-01-03 18:24:00,
2013-01-03 14:29:00,80.7,73.6,30.00,ESE,116,4.0,15.0,79,0.00,,,0.03,VWS V13.00,2013-01-03 18:29:00,
2013-01-03 14:34:00,80.3,73.6,29.99,East,94,1.0,9.0,80,0.00,,,0.03,VWS V13.00,2013-01-03 18:34:00,
2013-01-03 14:39:00,80.3,73.6,30.00,East,100,2.0,9.0,80,0.00,,,0.03,VWS V13.00,2013-01-03 18:39:00,
2013-01-03 14:44:00,80.2,73.5,29.99,SE,130,4.0,9.0,80,0.00,,,0.03,VWS V13.00,2013-01-03 18:44:00,
2013-01-03 14:49:00,80.4,73.7,29.99,East,101,2.0,9.0,80,0.00,,,0.03,VWS V13.00,2013-01-03 18:49:00,
2013-01-03 14:54:00,80.2,73.5,29.99,East,89,5.0,9.0,80,0.00,,,0.03,VWS V13.00,2013-01-03 18:54:00,
2013-01-03 14:59:00,80.2,73.5,29.99,SE,129,7.0,9.0,80,0.00,,,0.03,VWS V13.00,2013-01-03 18:59:00,
2013-01-03 15:04:00,80.1,73.4,29.99,East,91,5.0,11.0,80,0.00,,,0.03,VWS V13.00,2013-01-03 19:04:00,
2013-01-03 15:09:00,80.2,73.1,29.99,East,98,2.0,12.0,79,0.00,,,0.03,VWS V13.00,2013-01-03 19:09:00,
2013-01-03 15:14:00,80.4,73.3,29.99,SE,146,6.0,12.0,79,0.00,,,0.03,VWS V13.00,2013-01-03 19:14:00,
2013-01-03 15:51:00,80.6,72.3,29.99,East,100,2.0,11.0,76,0.00,,,0.03,VWS V13.00,2013-01-03 19:51:00,
2013-01-03 15:56:00,80.4,72.2,29.99,SE,126,9.0,11.0,76,0.00,,,0.03,VWS V13.00,2013-01-03 19:56:00,
2013-01-03 16:01:00,80.3,72.4,29.99,SE,138,4.0,4.0,77,0.00,,,0.03,VWS V13.00,2013-01-03 20:01:00,
2013-01-03 16:06:00,80.2,72.3,30.00,East,93,5.0,8.0,77,0.00,,,0.03,VWS V13.00,2013-01-03 20:06:00,
2013-01-03 16:11:00,80.0,72.2,30.00,ESE,121,1.0,10.0,77,0.00,,,0.03,VWS V13.00,2013-01-03 20:11:00,
2013-01-03 16:16:00,80.0,72.2,30.00,ESE,115,3.0,10.0,77,0.00,,,0.03,VWS V13.00,2013-01-03 20:16:00,
2013-01-03 16:21:00,80.0,71.8,30.00,ESE,103,4.0,11.0,76,0.00,,,0.03,VWS V13.00,2013-01-03 20:21:00,
2013-01-03 16:26:00,80.0,71.4,30.00,ESE,121,9.0,11.0,75,0.00,,,0.03,VWS V13.00,2013-01-03 20:26:00,
2013-01-03 16:31:00,80.1,71.1,30.00,SE,135,3.0,3.0,74,0.00,,,0.03,VWS V13.00,2013-01-03 20:31:00,
2013-01-03 16:36:00,79.9,70.1,30.00,ESE,121,3.0,5.0,72,0.00,,,0.03,VWS V13.00,2013-01-03 20:36:00,
2013-01-03 16:41:00,79.8,69.6,30.00,ESE,106,4.0,10.0,71,0.00,,,0.03,VWS V13.00,2013-01-03 20:41:00,
2013-01-03 16:46:00,79.8,70.0,30.00,SSE,160,5.0,10.0,72,0.00,,,0.03,VWS V13.00,2013-01-03 20:46:00,
2013-01-03 16:51:00,79.6,69.0,30.00,ESE,108,7.0,10.0,70,0.00,,,0.03,VWS V13.00,2013-01-03 20:51:00,
2013-01-03 16:56:00,79.6,69.0,30.00,East,92,1.0,10.0,70,0.00,,,0.03,VWS V13.00,2013-01-03 20:56:00,
2013-01-03 17:01:00,79.7,69.9,30.00,ESE,121,9.0,10.0,72,0.00,,,0.03,VWS V13.00,2013-01-03 21:01:00,
2013-01-03 17:07:00,79.8,70.8,30.01,SE,139,8.0,11.0,74,0.00,,,0.03,VWS V13.00,2013-01-03 21:07:00,
2013-01-03 17:12:00,79.8,70.8,30.01,ESE,116,0.0,11.0,74,0.00,,,0.03,VWS V13.00,2013-01-03 21:12:00,
2013-01-03 17:17:00,79.8,71.2,30.01,SE,142,3.0,11.0,75,0.00,,,0.03,VWS V13.00,2013-01-03 21:17:00,
2013-01-03 17:23:00,79.7,71.1,30.01,ESE,110,5.0,11.0,75,0.00,,,0.03,VWS V13.00,2013-01-03 21:23:00,
2013-01-03 17:28:00,79.5,70.9,30.01,ESE,105,3.0,12.0,75,0.00,,,0.03,VWS V13.00,2013-01-03 21:28:00,
2013-01-03 17:34:00,79.4,70.8,30.01,ESE,121,3.0,12.0,75,0.00,,,0.03,VWS V13.00,2013-01-03 21:34:00,
2013-01-03 17:39:00,79.3,70.7,30.02,ESE,120,8.0,12.0,75,0.00,,,0.03,VWS V13.00,2013-01-03 21:39:00,
2013-01-03 20:00:00,77.3,71.7,30.05,SSE,158,1.0,5.0,83,0.00,,,0.03,VWS V13.00,2013-01-04 00:00:00,
2013-01-03 20:30:00,78.1,72.5,30.06,ESE,112,2.0,8.0,83,0.00,,,0.03,VWS V13.00,2013-01-04 00:30:00,
2013-01-03 21:00:00,78.3,72.0,30.07,ESE,112,2.0,11.0,81,0.00,,,0.03,VWS V13.00,2013-01-04 01:00:00,
2013-01-03 21:30:00,77.8,72.2,30.08,SE,135,2.0,7.0,83,0.00,,,0.03,VWS V13.00,2013-01-04 01:30:00,
2013-01-03 22:00:00,77.2,71.6,30.08,SE,135,2.0,7.0,83,0.00,,,0.03,VWS V13.00,2013-01-04 02:00:00,
2013-01-03 22:30:00,77.1,71.9,30.08,SE,135,2.0,9.0,84,0.00,,,0.03,VWS V13.00,2013-01-04 02:30:00,
2013-01-03 23:00:00,76.8,71.6,30.08,SE,135,2.0,6.0,84,0.00,,,0.03,VWS V13.00,2013-01-04 03:00:00,
2013-01-03 23:30:00,76.7,71.5,30.08,SE,135,1.0,8.0,84,0.00,,,0.03,VWS V13.00,2013-01-04 03:30:00,